createdAt,value
2019-03-01T00:01:08.243Z,8.00
2019-03-01T00:02:05.075Z,8.00
2019-03-01T00:02:58.083Z,8.00
2019-03-01T00:03:58.069Z,8.00
2019-03-01T00:04:58.099Z,8.00
2019-03-01T00:05:58.092Z,8.00
2019-03-01T00:06:58.038Z,8.00
2019-03-01T00:07:58.044Z,8.00
2019-03-01T00:08:58.022Z,8.00
2019-03-01T00:09:58.016Z,8.00
2019-03-01T00:10:58.056Z,8.00
2019-03-01T00:11:57.985Z,8.00
2019-03-01T00:12:57.977Z,8.00
2019-03-01T00:13:57.963Z,8.00
2019-03-01T00:14:57.952Z,8.00
2019-03-01T00:15:57.955Z,8.00
2019-03-01T00:16:57.973Z,8.00
2019-03-01T00:17:57.932Z,8.00
2019-03-01T00:18:57.921Z,8.00
2019-03-01T00:19:57.905Z,8.00
2019-03-01T00:20:57.898Z,8.00
2019-03-01T00:21:57.879Z,8.00
2019-03-01T00:22:57.924Z,8.00
2019-03-01T00:23:57.865Z,8.00
2019-03-01T00:24:57.849Z,8.00
2019-03-01T00:25:57.860Z,8.00
2019-03-01T00:26:57.834Z,8.00
2019-03-01T00:27:57.824Z,8.00
2019-03-01T00:28:57.861Z,8.00
2019-03-01T00:29:57.806Z,8.00
2019-03-01T00:30:57.787Z,8.00
2019-03-01T00:31:57.804Z,8.00
2019-03-01T00:33:08.002Z,8.00
2019-03-01T00:33:57.754Z,8.00
2019-03-01T00:34:57.757Z,8.00
2019-03-01T00:35:57.736Z,8.00
2019-03-01T00:36:57.733Z,8.00
2019-03-01T00:37:57.752Z,8.00
2019-03-01T00:38:57.791Z,8.00
2019-03-01T00:39:57.696Z,8.00
2019-03-01T00:40:57.720Z,8.00
2019-03-01T00:41:57.688Z,8.00
2019-03-01T00:42:57.663Z,8.00
2019-03-01T00:43:57.657Z,8.00
2019-03-01T00:44:57.679Z,8.00
2019-03-01T00:45:57.643Z,8.00
2019-03-01T00:46:57.621Z,8.00
2019-03-01T00:47:57.613Z,8.00
2019-03-01T00:48:57.638Z,8.00
2019-03-01T00:49:57.607Z,8.00
2019-03-01T00:50:57.620Z,8.00
2019-03-01T00:51:57.567Z,8.00
2019-03-01T00:52:57.557Z,8.00
2019-03-01T00:53:57.572Z,8.00
2019-03-01T00:54:57.607Z,8.00
2019-03-01T00:55:57.526Z,8.00
2019-03-01T00:56:57.579Z,8.00
2019-03-01T00:57:57.523Z,8.00
2019-03-01T00:58:57.501Z,8.00
2019-03-01T00:59:57.525Z,8.00
2019-03-01T01:00:57.490Z,8.00
2019-03-01T01:01:57.484Z,8.00
2019-03-01T01:02:57.478Z,8.00
2019-03-01T01:04:07.542Z,8.00
2019-03-01T01:04:57.435Z,8.00
2019-03-01T01:05:57.426Z,8.00
2019-03-01T01:06:57.428Z,8.00
2019-03-01T01:07:57.445Z,8.00
2019-03-01T01:08:57.405Z,8.00
2019-03-01T01:09:57.393Z,8.00
2019-03-01T01:10:57.374Z,8.00
2019-03-01T01:11:57.383Z,8.00
2019-03-01T01:12:57.362Z,8.00
2019-03-01T01:13:57.384Z,8.00
2019-03-01T01:14:57.354Z,8.00
2019-03-01T01:16:04.314Z,8.00
2019-03-01T01:16:57.309Z,8.00
2019-03-01T01:17:57.302Z,8.00
2019-03-01T01:18:57.293Z,8.00
2019-03-01T01:19:57.324Z,8.00
2019-03-01T01:20:57.354Z,8.00
2019-03-01T01:21:57.261Z,8.00
2019-03-01T01:22:57.247Z,8.00
2019-03-01T01:23:57.249Z,8.00
2019-03-01T01:24:57.246Z,8.00
2019-03-01T01:25:57.227Z,8.00
2019-03-01T01:26:57.214Z,8.00
2019-03-01T01:27:57.202Z,8.00
2019-03-01T01:28:57.201Z,8.00
2019-03-01T01:29:57.177Z,8.00
2019-03-01T01:30:57.264Z,8.00
2019-03-01T01:31:57.171Z,8.00
2019-03-01T01:32:57.162Z,8.00
2019-03-01T01:33:57.157Z,8.00
2019-03-01T01:34:57.126Z,8.00
2019-03-01T01:35:57.131Z,8.00
2019-03-01T01:36:57.144Z,8.00
2019-03-01T01:37:57.106Z,8.00
2019-03-01T01:38:57.086Z,8.00
2019-03-01T01:39:57.085Z,8.00
2019-03-01T01:40:57.081Z,8.00
2019-03-01T01:41:57.051Z,8.00
2019-03-01T01:42:57.084Z,8.00
2019-03-01T01:43:57.047Z,8.00
2019-03-01T01:44:57.023Z,8.00
2019-03-01T01:45:57.032Z,8.00
2019-03-01T01:47:08.106Z,8.00
2019-03-01T01:47:56.993Z,8.00
2019-03-01T01:48:57.026Z,8.00
2019-03-01T01:49:56.984Z,8.00
2019-03-01T01:50:56.968Z,8.00
2019-03-01T01:51:56.959Z,8.00
2019-03-01T01:52:56.941Z,8.00
2019-03-01T01:53:56.933Z,8.00
2019-03-01T01:54:57.009Z,8.00
2019-03-01T01:55:56.914Z,8.00
2019-03-01T01:56:56.910Z,8.00
2019-03-01T01:57:56.901Z,8.00
2019-03-01T01:58:56.909Z,8.00
2019-03-01T01:59:56.869Z,8.00
2019-03-01T02:00:56.894Z,8.00
2019-03-01T02:01:56.899Z,8.00
2019-03-01T02:02:56.860Z,8.00
2019-03-01T02:03:56.831Z,8.00
2019-03-01T02:04:56.826Z,8.00
2019-03-01T02:05:56.851Z,8.00
2019-03-01T02:06:56.848Z,8.00
2019-03-01T02:07:56.786Z,8.00
2019-03-01T02:08:56.777Z,8.00
2019-03-01T02:09:56.816Z,8.00
2019-03-01T02:10:56.764Z,8.00
2019-03-01T02:11:56.747Z,8.00
2019-03-01T02:12:56.773Z,8.00
2019-03-01T02:13:56.737Z,8.00
2019-03-01T02:14:56.723Z,8.00
2019-03-01T02:15:56.705Z,8.00
2019-03-01T02:16:56.693Z,8.00
2019-03-01T02:18:08.480Z,8.00
2019-03-01T02:18:58.017Z,8.00
2019-03-01T02:19:56.687Z,8.00
2019-03-01T02:20:56.652Z,8.00
2019-03-01T02:21:56.656Z,8.00
2019-03-01T02:22:56.647Z,8.00
2019-03-01T02:23:56.801Z,8.00
2019-03-01T02:24:56.649Z,8.00
2019-03-01T02:25:56.619Z,8.00
2019-03-01T02:26:56.599Z,8.00
2019-03-01T02:27:56.585Z,8.00
2019-03-01T02:28:56.599Z,8.00
2019-03-01T02:29:56.738Z,8.00
2019-03-01T02:30:56.569Z,8.00
2019-03-01T02:31:56.554Z,8.00
2019-03-01T02:32:56.541Z,8.00
2019-03-01T02:33:56.533Z,8.00
2019-03-01T02:34:56.528Z,8.00
2019-03-01T02:35:56.544Z,8.00
2019-03-01T02:36:56.492Z,8.00
2019-03-01T02:37:56.488Z,8.00
2019-03-01T02:38:56.504Z,8.00
2019-03-01T02:39:56.461Z,8.00
2019-03-01T02:40:56.448Z,8.00
2019-03-01T02:41:56.463Z,8.00
2019-03-01T02:42:56.452Z,8.00
2019-03-01T02:43:56.415Z,8.00
2019-03-01T02:44:56.437Z,8.00
2019-03-01T02:45:56.446Z,8.00
2019-03-01T02:46:56.395Z,8.00
2019-03-01T02:47:56.432Z,8.00
2019-03-01T02:49:07.315Z,8.00
2019-03-01T02:49:56.360Z,8.00
2019-03-01T02:50:56.348Z,8.00
2019-03-01T02:51:56.341Z,8.00
2019-03-01T02:52:56.365Z,8.00
2019-03-01T02:53:56.393Z,8.00
2019-03-01T02:54:56.305Z,8.00
2019-03-01T02:55:56.309Z,8.00
2019-03-01T02:56:56.304Z,8.00
2019-03-01T02:57:56.289Z,8.00
2019-03-01T02:58:56.273Z,8.00
2019-03-01T02:59:56.302Z,8.00
2019-03-01T03:00:56.271Z,8.00
2019-03-01T03:01:56.237Z,8.00
2019-03-01T03:02:56.228Z,8.00
2019-03-01T03:03:56.247Z,8.00
2019-03-01T03:04:56.224Z,8.00
2019-03-01T03:05:56.271Z,8.00
2019-03-01T03:06:56.200Z,8.00
2019-03-01T03:07:56.194Z,8.00
2019-03-01T03:08:56.182Z,8.00
2019-03-01T03:09:56.221Z,8.00
2019-03-01T03:10:56.143Z,8.00
2019-03-01T03:11:56.173Z,8.00
2019-03-01T03:12:56.136Z,8.00
2019-03-01T03:13:56.126Z,8.00
2019-03-01T03:14:56.106Z,8.00
2019-03-01T03:15:56.097Z,8.00
2019-03-01T03:16:56.095Z,8.00
2019-03-01T03:17:56.142Z,8.00
2019-03-01T03:18:56.070Z,8.00
2019-03-01T03:20:06.314Z,8.00
2019-03-01T03:20:56.043Z,8.00
2019-03-01T03:21:56.036Z,8.00
2019-03-01T03:22:56.035Z,8.00
2019-03-01T03:23:56.061Z,8.00
2019-03-01T03:24:55.999Z,8.00
2019-03-01T03:25:56.004Z,8.00
2019-03-01T03:26:55.992Z,8.00
2019-03-01T03:27:56.000Z,8.00
2019-03-01T03:28:56.006Z,8.00
2019-03-01T03:29:55.992Z,8.00
2019-03-01T03:30:55.989Z,8.00
2019-03-01T03:31:55.944Z,8.00
2019-03-01T03:32:55.915Z,8.00
2019-03-01T03:33:55.926Z,8.00
2019-03-01T03:34:55.923Z,8.00
2019-03-01T03:35:55.908Z,8.00
2019-03-01T03:36:55.884Z,8.00
2019-03-01T03:37:55.869Z,8.00
2019-03-01T03:38:55.872Z,8.00
2019-03-01T03:39:55.843Z,8.00
2019-03-01T03:40:55.913Z,8.00
2019-03-01T03:41:55.874Z,8.00
2019-03-01T03:42:55.827Z,8.00
2019-03-01T03:43:55.819Z,8.00
2019-03-01T03:44:55.823Z,8.00
2019-03-01T03:45:55.789Z,8.00
2019-03-01T03:46:55.783Z,8.00
2019-03-01T03:47:55.852Z,8.00
2019-03-01T03:48:55.753Z,8.00
2019-03-01T03:49:55.760Z,8.00
2019-03-01T03:51:05.939Z,8.00
2019-03-01T03:51:55.723Z,8.00
2019-03-01T03:52:55.712Z,8.00
2019-03-01T03:53:55.761Z,8.00
2019-03-01T03:54:55.689Z,8.00
2019-03-01T03:55:55.680Z,8.00
2019-03-01T03:56:55.696Z,8.00
2019-03-01T03:57:55.667Z,8.00
2019-03-01T03:58:55.655Z,8.00
2019-03-01T03:59:55.678Z,8.00
2019-03-01T04:00:55.628Z,8.00
2019-03-01T04:01:55.619Z,8.00
2019-03-01T04:02:55.639Z,8.00
2019-03-01T04:03:56.326Z,8.00
2019-03-01T04:04:55.602Z,8.00
2019-03-01T04:05:55.627Z,8.00
2019-03-01T04:06:55.577Z,8.00
2019-03-01T04:07:55.559Z,8.00
2019-03-01T04:08:56.355Z,8.00
2019-03-01T04:09:55.549Z,8.00
2019-03-01T04:10:55.572Z,8.00
2019-03-01T04:11:55.708Z,8.00
2019-03-01T04:12:55.640Z,8.00
2019-03-01T04:13:56.317Z,8.00
2019-03-01T04:14:55.493Z,8.00
2019-03-01T04:15:55.526Z,8.00
2019-03-01T04:16:55.471Z,8.00
2019-03-01T04:17:55.565Z,12.00
2019-03-01T04:18:55.469Z,12.00
2019-03-01T04:19:55.441Z,12.00
2019-03-01T04:20:55.453Z,12.00
2019-03-01T04:22:07.130Z,12.00
2019-03-01T04:22:55.428Z,12.00
2019-03-01T04:23:55.401Z,12.00
2019-03-01T04:24:55.396Z,12.00
2019-03-01T04:25:55.378Z,12.00
2019-03-01T04:26:55.369Z,8.00
2019-03-01T04:27:55.539Z,8.00
2019-03-01T04:28:55.347Z,12.00
2019-03-01T04:29:55.392Z,12.00
2019-03-01T04:30:55.327Z,12.00
2019-03-01T04:31:55.319Z,16.00
2019-03-01T04:32:55.317Z,12.00
2019-03-01T04:33:55.326Z,12.00
2019-03-01T04:34:55.283Z,12.00
2019-03-01T04:35:55.276Z,12.00
2019-03-01T04:36:55.291Z,12.00
2019-03-01T04:37:55.258Z,16.00
2019-03-01T04:38:55.237Z,16.00
2019-03-01T04:39:55.280Z,16.00
2019-03-01T04:40:55.224Z,20.00
2019-03-01T04:41:55.207Z,20.00
2019-03-01T04:42:55.204Z,24.00
2019-03-01T04:43:55.187Z,28.00
2019-03-01T04:44:55.189Z,28.00
2019-03-01T04:45:55.214Z,32.00
2019-03-01T04:46:55.184Z,36.00
2019-03-01T04:47:55.168Z,36.00
2019-03-01T04:48:55.146Z,40.00
2019-03-01T04:49:55.146Z,48.00
2019-03-01T04:50:55.134Z,56.00
2019-03-01T04:51:55.151Z,60.00
2019-03-01T04:53:05.305Z,68.00
2019-03-01T04:53:55.091Z,72.00
2019-03-01T04:54:55.080Z,84.00
2019-03-01T04:55:55.065Z,96.00
2019-03-01T04:56:55.058Z,104.00
2019-03-01T04:57:55.071Z,116.00
2019-03-01T04:58:55.033Z,132.00
2019-03-01T04:59:55.027Z,144.00
2019-03-01T05:00:55.025Z,156.00
2019-03-01T05:01:55.022Z,172.00
2019-03-01T05:02:55.028Z,188.00
2019-03-01T05:03:54.994Z,208.00
2019-03-01T05:04:54.982Z,228.00
2019-03-01T05:05:54.966Z,248.00
2019-03-01T05:06:54.953Z,268.00
2019-03-01T05:07:54.944Z,292.00
2019-03-01T05:08:55.113Z,316.00
2019-03-01T05:09:55.646Z,344.00
2019-03-01T05:10:54.926Z,368.00
2019-03-01T05:11:54.901Z,396.00
2019-03-01T05:12:54.903Z,428.00
2019-03-01T05:13:54.918Z,460.00
2019-03-01T05:14:54.911Z,488.00
2019-03-01T05:15:54.866Z,524.00
2019-03-01T05:16:54.854Z,540.00
2019-03-01T05:17:54.867Z,588.00
2019-03-01T05:18:54.895Z,620.00
2019-03-01T05:19:54.818Z,660.00
2019-03-01T05:20:54.853Z,696.00
2019-03-01T05:21:54.795Z,736.00
2019-03-01T05:22:54.783Z,772.00
2019-03-01T05:24:04.731Z,812.00
2019-03-01T05:24:54.766Z,852.00
2019-03-01T05:25:54.756Z,892.00
2019-03-01T05:26:54.758Z,936.00
2019-03-01T05:27:54.750Z,980.00
2019-03-01T05:28:54.749Z,1020.00
2019-03-01T05:29:54.720Z,1060.00
2019-03-01T05:30:54.719Z,1100.00
2019-03-01T05:31:54.900Z,1148.00
2019-03-01T05:32:54.687Z,1192.00
2019-03-01T05:33:55.437Z,1232.00
2019-03-01T05:34:54.667Z,1272.00
2019-03-01T05:35:54.661Z,1320.00
2019-03-01T05:36:54.656Z,1360.00
2019-03-01T05:37:54.668Z,1408.00
2019-03-01T05:38:54.625Z,1452.00
2019-03-01T05:39:54.617Z,1492.00
2019-03-01T05:40:54.599Z,1540.00
2019-03-01T05:41:54.601Z,1580.00
2019-03-01T05:42:54.589Z,1624.00
2019-03-01T05:43:54.615Z,1668.00
2019-03-01T05:44:54.571Z,1716.00
2019-03-01T05:45:54.548Z,1756.00
2019-03-01T05:46:54.538Z,1800.00
2019-03-01T05:47:54.554Z,1844.00
2019-03-01T05:48:54.525Z,1888.00
2019-03-01T05:49:54.547Z,1928.00
2019-03-01T05:50:54.511Z,1968.00
2019-03-01T05:51:54.493Z,2016.00
2019-03-01T05:52:54.481Z,2052.00
2019-03-01T05:53:54.492Z,2092.00
2019-03-01T05:55:04.907Z,2136.00
2019-03-01T05:55:54.447Z,2176.00
2019-03-01T05:56:54.436Z,2220.00
2019-03-01T05:57:54.428Z,2260.00
2019-03-01T05:58:54.423Z,2304.00
2019-03-01T05:59:54.410Z,2344.00
2019-03-01T06:00:54.457Z,2384.00
2019-03-01T06:01:54.383Z,2424.00
2019-03-01T06:02:54.388Z,2464.00
2019-03-01T06:03:54.408Z,2508.00
2019-03-01T06:04:54.390Z,2544.00
2019-03-01T06:05:54.353Z,2584.00
2019-03-01T06:06:54.374Z,2624.00
2019-03-01T06:07:54.338Z,2664.00
2019-03-01T06:08:54.315Z,2700.00
2019-03-01T06:09:54.301Z,2736.00
2019-03-01T06:10:54.295Z,2780.00
2019-03-01T06:11:54.293Z,2816.00
2019-03-01T06:12:54.314Z,2852.00
2019-03-01T06:13:54.265Z,2892.00
2019-03-01T06:14:54.261Z,2924.00
2019-03-01T06:15:54.257Z,2964.00
2019-03-01T06:16:54.237Z,3000.00
2019-03-01T06:17:54.263Z,3036.00
2019-03-01T06:18:54.221Z,3072.00
2019-03-01T06:19:54.208Z,3112.00
2019-03-01T06:20:54.196Z,3148.00
2019-03-01T06:21:54.185Z,3180.00
2019-03-01T06:22:54.175Z,3216.00
2019-03-01T06:23:54.173Z,3256.00
2019-03-01T06:24:54.159Z,3288.00
2019-03-01T06:26:04.188Z,3324.00
2019-03-01T06:26:54.127Z,3356.00
2019-03-01T06:27:54.147Z,3396.00
2019-03-01T06:28:54.293Z,3432.00
2019-03-01T06:29:54.112Z,3464.00
2019-03-01T06:30:54.100Z,3500.00
2019-03-01T06:31:54.075Z,3536.00
2019-03-01T06:32:54.088Z,3568.00
2019-03-01T06:33:54.068Z,3604.00
2019-03-01T06:34:54.095Z,3640.00
2019-03-01T06:35:54.038Z,3676.00
2019-03-01T06:36:54.042Z,3704.00
2019-03-01T06:37:54.030Z,3748.00
2019-03-01T06:38:54.023Z,3776.00
2019-03-01T06:39:53.995Z,3808.00
2019-03-01T06:40:54.022Z,3848.00
2019-03-01T06:41:53.988Z,3880.00
2019-03-01T06:42:53.967Z,3916.00
2019-03-01T06:43:53.952Z,3948.00
2019-03-01T06:44:53.996Z,3976.00
2019-03-01T06:45:53.934Z,4012.00
2019-03-01T06:46:53.970Z,4044.00
2019-03-01T06:47:53.917Z,4060.00
2019-03-01T06:48:53.910Z,4108.00
2019-03-01T06:49:53.890Z,4140.00
2019-03-01T06:50:53.888Z,4168.00
2019-03-01T06:51:53.906Z,4204.00
2019-03-01T06:52:53.898Z,4240.00
2019-03-01T06:53:53.855Z,4276.00
2019-03-01T06:54:53.858Z,4312.00
2019-03-01T06:55:53.836Z,4344.00
2019-03-01T06:57:04.018Z,4384.00
2019-03-01T06:57:53.812Z,4420.00
2019-03-01T06:58:53.841Z,4460.00
2019-03-01T06:59:53.789Z,4496.00
2019-03-01T07:00:53.780Z,4532.00
2019-03-01T07:01:53.777Z,4572.00
2019-03-01T07:02:53.755Z,4616.00
2019-03-01T07:03:53.755Z,4628.00
2019-03-01T07:04:53.758Z,4704.00
2019-03-01T07:06:02.968Z,4744.00
2019-03-01T07:06:54.714Z,4780.00
2019-03-01T07:07:53.702Z,4844.00
2019-03-01T07:08:53.701Z,4904.00
2019-03-01T07:09:53.694Z,4940.00
2019-03-01T07:10:53.745Z,4984.00
2019-03-01T07:11:53.666Z,5020.00
2019-03-01T07:12:53.655Z,5060.00
2019-03-01T07:13:53.644Z,5104.00
2019-03-01T07:14:53.676Z,5160.00
2019-03-01T07:15:53.633Z,5216.00
2019-03-01T07:16:53.618Z,5288.00
2019-03-01T07:17:53.605Z,5336.00
2019-03-01T07:18:53.590Z,5380.00
2019-03-01T07:19:53.593Z,5428.00
2019-03-01T07:20:53.575Z,5472.00
2019-03-01T07:21:53.608Z,5516.00
2019-03-01T07:22:53.554Z,5560.00
2019-03-01T07:23:53.543Z,5604.00
2019-03-01T07:24:53.536Z,5648.00
2019-03-01T07:25:54.881Z,5700.00
2019-03-01T07:26:53.514Z,5744.00
2019-03-01T07:28:04.107Z,5788.00
2019-03-01T07:28:53.494Z,5832.00
2019-03-01T07:29:53.477Z,5880.00
2019-03-01T07:30:53.486Z,5924.00
2019-03-01T07:31:53.460Z,5968.00
2019-03-01T07:32:53.476Z,6012.00
2019-03-01T07:33:53.478Z,6056.00
2019-03-01T07:34:53.495Z,6100.00
2019-03-01T07:35:53.434Z,6156.00
2019-03-01T07:36:53.410Z,6192.00
2019-03-01T07:37:53.419Z,6236.00
2019-03-01T07:38:53.419Z,6284.00
2019-03-01T07:39:53.423Z,6312.00
2019-03-01T07:40:53.387Z,6368.00
2019-03-01T07:41:53.365Z,6420.00
2019-03-01T07:42:53.360Z,6460.00
2019-03-01T07:43:53.348Z,6524.00
2019-03-01T07:44:53.330Z,6556.00
2019-03-01T07:45:53.383Z,6600.00
2019-03-01T07:46:54.281Z,6648.00
2019-03-01T07:47:53.324Z,6696.00
2019-03-01T07:48:53.286Z,6740.00
2019-03-01T07:49:53.290Z,6780.00
2019-03-01T07:50:55.237Z,6832.00
2019-03-01T07:51:53.309Z,6876.00
2019-03-01T07:52:53.275Z,6500.00
2019-03-01T07:53:53.926Z,6984.00
2019-03-01T07:54:53.744Z,7036.00
2019-03-01T07:55:53.240Z,7084.00
2019-03-01T07:56:53.225Z,7136.00
2019-03-01T07:57:53.237Z,7192.00
2019-03-01T07:59:03.203Z,7236.00
2019-03-01T07:59:53.172Z,7288.00
2019-03-01T08:00:54.634Z,7340.00
2019-03-01T08:01:53.156Z,7404.00
2019-03-01T08:02:53.145Z,7464.00
2019-03-01T08:03:53.276Z,7528.00
2019-03-01T08:04:53.124Z,7644.00
2019-03-01T08:05:53.114Z,12600.00
2019-03-01T08:06:53.103Z,24704.00
2019-03-01T08:07:56.377Z,37632.00
2019-03-01T08:08:53.083Z,47040.00
2019-03-01T08:09:54.210Z,49280.00
2019-03-01T08:10:53.545Z,51104.00
2019-03-01T08:11:53.053Z,54720.00
2019-03-01T08:12:53.036Z,54976.00
2019-03-01T08:13:54.256Z,54272.00
2019-03-01T08:14:53.022Z,54368.00
2019-03-01T08:15:53.052Z,54752.00
2019-03-01T08:16:56.044Z,54464.00
2019-03-01T08:17:53.003Z,54016.00
2019-03-01T08:18:52.972Z,54176.00
2019-03-01T08:19:54.983Z,56256.00
2019-03-01T08:20:53.959Z,57920.00
2019-03-01T08:21:52.939Z,59168.00
2019-03-01T08:22:52.933Z,59072.00
2019-03-01T08:23:52.923Z,56896.00
2019-03-01T08:24:52.948Z,55424.00
2019-03-01T08:25:55.493Z,56960.00
2019-03-01T08:26:53.897Z,59392.00
2019-03-01T08:27:52.878Z,60608.00
2019-03-01T08:28:54.743Z,61056.00
